Ashland, Pennsylvania
Current Conditions -  °F | °C
As of 5:15 AM on Sunday 26 Oct 2014 (Local Time) from KHZL Reporting Station
Scattered Clouds Scattered Clouds  
Wind Chill: 50°   Ceiling: Unl
Heat Index: 50°   Visibility: 10mi
Dew Point: 32°   Wind: 9mph
Humidity: 50%   Direction: 290°WNW
Pressure: 29.68"   Gusts: 25mph
Location:  40.78°N, 76.35°W
Report Text: KHZL 260915Z AUTO 29008G22KT 10SM SCT060 10/00 A2968 RMK AO2
Loading
Personal Weather Stations






























Interactive Weather Map
Tropical Storm Tracking
New forecast layout! Learn more

10-Day Weather Forecast

Advertisements
Track Severe Weather on mobile